This is the latest recevied weather packets stored in our database for station/object GW1496. If no packets are shown the sender has not sent any weather packets the latest 10 day(s).
| Time | Temp. | Humidity | Pressure | Rain* | Wind** | Luminosity | Snow |
|---|---|---|---|---|---|---|---|
| 1777832334 | 15.56° C | 31% | 1008.8 hPa | 0 mm | - | - | - |
| 1777830500 | 14.44° C | 28% | 1008.8 hPa | 0 mm | - | - | - |
| 1777824410 | 12.78° C | 32% | 1009.8 hPa | 0 mm | - | - | - |
| 1777823677 | 12.78° C | 33% | 1009.8 hPa | 0 mm | - | - | - |
| 1777821138 | 11.67° C | 32% | 1010.8 hPa | 0 mm | - | - | - |
| 1777820790 | 12.22° C | 33% | 1010.8 hPa | 0 mm | - | - | - |
| 1777820078 | 12.78° C | 33% | 1010.8 hPa | 0 mm | - | - | - |
| 1777818641 | 11.67° C | 35% | 1010.8 hPa | 0 mm | - | - | - |
| 1777816828 | 8.89° C | 45% | 1010.8 hPa | 0 mm | - | - | - |
| 1777808179 | 1.11° C | 90% | 1010.8 hPa | 0 mm | - | - | - |
| 1777807091 | 1.67° C | 90% | 1009.8 hPa | 0 mm | - | - | - |
| 1777804936 | 1.67° C | 90% | 1009.8 hPa | 0 mm | - | - | - |
| 1777802774 | 1.67° C | 90% | 1008.8 hPa | 0 mm | - | - | - |
| 1777798814 | 1.67° C | 91% | 1008.8 hPa | 0 mm | - | - | - |
| 1777797760 | 1.67° C | 91% | 1008.8 hPa | 0 mm | - | - | - |
| 1777797038 | 1.67° C | 91% | 1008.8 hPa | 0 mm | - | - | - |
| 1777796691 | 1.67° C | 91% | 1008.8 hPa | 0 mm | - | - | - |
| 1777791983 | 2.78° C | 89% | 1007.7 hPa | 0 mm | - | - | - |
| 1777789092 | 3.33° C | 89% | 1007.7 hPa | 0 mm | - | - | - |
| 1777786957 | 2.78° C | 89% | 1007.7 hPa | 0 mm | - | - | - |
| 1777786583 | 3.33° C | 89% | 1007.7 hPa | 0 mm | - | - | - |
| 1777786251 | 2.78° C | 89% | 1007.7 hPa | 0 mm | - | - | - |
| 1777785535 | 3.33° C | 89% | 1007.7 hPa | 0 mm | - | - | - |
| 1777783725 | 3.33° C | 86% | 1007.7 hPa | 0 mm | - | - | - |
| 1777783362 | 3.89° C | 86% | 1006.7 hPa | 0 mm | - | - | - |
* Rain since midnight (hover to see other rain measurements)
** Current wind speed in m/s (hover to see current wind gust speed)